createdAt,value
2019-04-28T00:00:05.668Z,15.56
2019-04-28T00:01:05.681Z,15.69
2019-04-28T00:02:05.424Z,15.69
2019-04-28T00:03:05.501Z,15.81
2019-04-28T00:04:05.655Z,15.94
2019-04-28T00:05:05.324Z,16.12
2019-04-28T00:06:06.141Z,16.25
2019-04-28T00:07:05.901Z,16.31
2019-04-28T00:08:06.011Z,16.25
2019-04-28T00:09:05.162Z,16.25
2019-04-28T00:10:06.043Z,16.31
2019-04-28T00:11:05.667Z,16.19
2019-04-28T00:12:06.340Z,16.38
2019-04-28T00:13:05.651Z,16.62
2019-04-28T00:14:08.184Z,17.06
2019-04-28T00:15:05.412Z,16.75
2019-04-28T00:16:05.572Z,16.38
2019-04-28T00:17:05.817Z,16.06
2019-04-28T00:18:05.404Z,15.81
2019-04-28T00:19:06.056Z,16.19
2019-04-28T00:20:05.271Z,16.56
2019-04-28T00:21:05.255Z,16.50
2019-04-28T00:22:06.002Z,16.31
2019-04-28T00:23:07.090Z,16.06
2019-04-28T00:24:05.663Z,15.88
2019-04-28T00:25:05.177Z,15.75
2019-04-28T00:26:05.743Z,15.56
2019-04-28T00:27:06.128Z,15.38
2019-04-28T00:28:05.576Z,15.25
2019-04-28T00:29:05.641Z,15.19
2019-04-28T00:30:05.241Z,15.12
2019-04-28T00:31:05.800Z,15.19
2019-04-28T00:32:05.319Z,15.25
2019-04-28T00:33:05.582Z,15.19
2019-04-28T00:34:05.745Z,15.19
2019-04-28T00:35:05.657Z,15.12
2019-04-28T00:36:05.431Z,15.12
2019-04-28T00:37:05.500Z,15.19
2019-04-28T00:38:05.642Z,15.38
2019-04-28T00:39:05.915Z,15.75
2019-04-28T00:40:05.977Z,16.31
2019-04-28T00:41:05.424Z,16.56
2019-04-28T00:42:05.767Z,16.44
2019-04-28T00:43:06.060Z,16.12
2019-04-28T00:44:05.349Z,15.81
2019-04-28T00:45:05.436Z,15.56
2019-04-28T00:46:05.966Z,15.50
2019-04-28T00:47:05.561Z,15.31
2019-04-28T00:48:05.485Z,15.31
2019-04-28T00:49:05.108Z,15.19
2019-04-28T00:50:05.266Z,15.06
2019-04-28T00:51:05.491Z,14.94
2019-04-28T00:52:05.340Z,14.94
2019-04-28T00:53:05.496Z,14.88
2019-04-28T00:54:05.484Z,14.88
2019-04-28T00:55:05.006Z,14.88
2019-04-28T00:56:05.752Z,14.94
2019-04-28T00:57:05.903Z,14.94
2019-04-28T00:58:05.406Z,14.88
2019-04-28T00:59:05.967Z,15.00
2019-04-28T01:00:05.104Z,15.00
2019-04-28T01:01:05.410Z,14.88
2019-04-28T01:02:05.260Z,14.81
2019-04-28T01:03:05.670Z,14.88
2019-04-28T01:04:05.113Z,15.00
2019-04-28T01:05:06.275Z,15.06
2019-04-28T01:06:05.260Z,15.38
2019-04-28T01:07:05.337Z,15.44
2019-04-28T01:08:05.200Z,15.38
2019-04-28T01:09:05.197Z,15.44
2019-04-28T01:10:05.549Z,15.38
2019-04-28T01:11:05.732Z,15.50
2019-04-28T01:12:05.343Z,15.44
2019-04-28T01:13:05.760Z,15.31
2019-04-28T01:14:05.104Z,15.31
2019-04-28T01:15:05.479Z,15.19
2019-04-28T01:16:05.904Z,15.06
2019-04-28T01:17:05.262Z,15.00
2019-04-28T01:18:05.815Z,15.00
2019-04-28T01:19:05.184Z,15.00
2019-04-28T01:20:05.338Z,15.06
2019-04-28T01:21:05.736Z,15.06
2019-04-28T01:22:05.082Z,14.94
2019-04-28T01:23:05.569Z,14.81
2019-04-28T01:24:05.784Z,14.81
2019-04-28T01:25:05.088Z,14.75
2019-04-28T01:26:05.610Z,14.69
2019-04-28T01:27:06.053Z,14.75
2019-04-28T01:28:05.647Z,14.81
2019-04-28T01:29:05.999Z,14.81
2019-04-28T01:30:08.577Z,14.75
2019-04-28T01:31:05.494Z,14.69
2019-04-28T01:32:05.938Z,14.75
2019-04-28T01:33:05.517Z,14.69
2019-04-28T01:34:05.977Z,14.62
2019-04-28T01:35:05.265Z,14.62
2019-04-28T01:36:05.666Z,14.75
2019-04-28T01:37:05.097Z,14.75
2019-04-28T01:38:05.329Z,14.75
2019-04-28T01:39:05.184Z,15.06
2019-04-28T01:40:05.566Z,15.12
2019-04-28T01:41:05.908Z,15.00
2019-04-28T01:42:05.258Z,14.94
2019-04-28T01:43:05.647Z,15.06
2019-04-28T01:44:05.286Z,14.88
2019-04-28T01:45:05.262Z,14.88
2019-04-28T01:46:05.886Z,14.88
2019-04-28T01:47:05.979Z,14.88
2019-04-28T01:48:05.099Z,14.94
2019-04-28T01:49:05.576Z,14.88
2019-04-28T01:50:06.086Z,14.94
2019-04-28T01:51:05.182Z,14.88
2019-04-28T01:52:05.670Z,14.81
2019-04-28T01:53:05.034Z,14.75
2019-04-28T01:54:05.469Z,14.69
2019-04-28T01:55:05.977Z,14.69
2019-04-28T01:56:05.977Z,14.69
2019-04-28T01:57:05.240Z,14.75
2019-04-28T01:58:05.257Z,14.69
2019-04-28T01:59:05.415Z,14.62
2019-04-28T02:00:18.928Z,14.62
2019-04-28T02:01:05.818Z,14.50
2019-04-28T02:02:05.739Z,14.44
2019-04-28T02:03:05.413Z,14.44
2019-04-28T02:04:05.901Z,14.44
2019-04-28T02:05:05.802Z,14.38
2019-04-28T02:06:05.221Z,14.38
2019-04-28T02:07:06.028Z,14.38
2019-04-28T02:08:05.962Z,14.38
2019-04-28T02:09:05.252Z,14.31
2019-04-28T02:10:05.326Z,14.44
2019-04-28T02:11:05.373Z,14.38
2019-04-28T02:12:05.694Z,14.38
2019-04-28T02:13:05.902Z,14.38
2019-04-28T02:14:05.671Z,14.44
2019-04-28T02:15:05.981Z,14.69
2019-04-28T02:16:05.424Z,14.62
2019-04-28T02:17:06.241Z,14.62
2019-04-28T02:18:05.263Z,14.69
2019-04-28T02:19:05.098Z,14.56
2019-04-28T02:20:05.262Z,14.50
2019-04-28T02:21:05.419Z,14.44
2019-04-28T02:22:05.573Z,14.44
2019-04-28T02:23:05.901Z,14.38
2019-04-28T02:24:05.178Z,14.31
2019-04-28T02:25:06.124Z,14.25
2019-04-28T02:26:05.476Z,14.25
2019-04-28T02:27:05.737Z,14.25
2019-04-28T02:28:05.187Z,14.19
2019-04-28T02:29:05.188Z,14.12
2019-04-28T02:30:05.398Z,14.12
2019-04-28T02:31:05.539Z,14.12
2019-04-28T02:32:05.259Z,14.19
2019-04-28T02:33:06.073Z,14.44
2019-04-28T02:34:05.093Z,14.38
2019-04-28T02:35:06.324Z,14.38
2019-04-28T02:36:08.659Z,14.50
2019-04-28T02:37:05.258Z,14.44
2019-04-28T02:38:05.323Z,14.56
2019-04-28T02:39:05.737Z,14.75
2019-04-28T02:40:06.050Z,14.88
2019-04-28T02:41:05.325Z,14.75
2019-04-28T02:42:05.495Z,14.69
2019-04-28T02:43:05.829Z,14.81
2019-04-28T02:44:05.894Z,14.88
2019-04-28T02:45:05.816Z,14.69
2019-04-28T02:46:05.180Z,14.69
2019-04-28T02:47:05.962Z,14.88
2019-04-28T02:48:05.138Z,14.81
2019-04-28T02:49:05.346Z,14.69
2019-04-28T02:50:05.330Z,14.94
2019-04-28T02:51:06.471Z,15.06
2019-04-28T02:52:05.324Z,15.12
2019-04-28T02:53:05.748Z,15.00
2019-04-28T02:54:06.019Z,15.00
2019-04-28T02:55:05.984Z,15.12
2019-04-28T02:56:05.170Z,15.12
2019-04-28T02:57:05.666Z,15.19
2019-04-28T02:58:05.631Z,15.06
2019-04-28T02:59:05.472Z,15.12
2019-04-28T03:00:05.324Z,15.12
2019-04-28T03:01:12.725Z,15.12
2019-04-28T03:02:05.747Z,14.88
2019-04-28T03:03:06.136Z,14.81
2019-04-28T03:04:05.833Z,14.94
2019-04-28T03:05:05.871Z,15.12
2019-04-28T03:06:05.655Z,15.06
2019-04-28T03:07:05.252Z,15.06
2019-04-28T03:08:05.809Z,15.06
2019-04-28T03:09:05.238Z,15.06
2019-04-28T03:10:05.533Z,15.06
2019-04-28T03:11:05.977Z,15.12
2019-04-28T03:12:06.914Z,14.88
2019-04-28T03:13:05.401Z,14.75
2019-04-28T03:14:05.314Z,14.69
2019-04-28T03:15:05.714Z,14.81
2019-04-28T03:16:05.906Z,14.81
2019-04-28T03:17:05.411Z,14.75
2019-04-28T03:18:06.077Z,14.88
2019-04-28T03:19:05.171Z,14.88
2019-04-28T03:20:05.412Z,14.94
2019-04-28T03:21:05.486Z,14.88
2019-04-28T03:22:05.258Z,14.75
2019-04-28T03:23:09.005Z,14.75
2019-04-28T03:24:05.808Z,14.69
2019-04-28T03:25:05.971Z,14.75
2019-04-28T03:26:05.163Z,14.69
2019-04-28T03:27:05.581Z,14.75
2019-04-28T03:28:05.409Z,14.88
2019-04-28T03:29:05.309Z,14.88
2019-04-28T03:30:05.550Z,15.00
2019-04-28T03:31:34.226Z,15.00
2019-04-28T03:32:24.533Z,15.06
2019-04-28T03:33:11.495Z,15.00
2019-04-28T03:34:05.761Z,14.94
2019-04-28T03:35:05.885Z,14.88
2019-04-28T03:36:08.215Z,14.81
2019-04-28T03:37:05.876Z,15.19
2019-04-28T03:38:05.235Z,15.19
2019-04-28T03:39:05.488Z,15.25
2019-04-28T03:40:05.859Z,15.06
2019-04-28T03:41:05.968Z,14.81
2019-04-28T03:42:06.868Z,14.75
2019-04-28T03:43:05.818Z,14.81
2019-04-28T03:44:05.968Z,14.75
2019-04-28T03:45:05.193Z,15.19
2019-04-28T03:46:05.259Z,15.25
2019-04-28T03:47:05.323Z,15.19
2019-04-28T03:48:05.718Z,15.12
2019-04-28T03:49:05.317Z,15.06
2019-04-28T03:50:05.957Z,15.25
2019-04-28T03:51:05.891Z,15.69
2019-04-28T03:52:06.825Z,16.00
2019-04-28T03:53:05.584Z,15.94
2019-04-28T03:54:05.802Z,15.75
2019-04-28T03:55:05.800Z,15.69
2019-04-28T03:56:05.356Z,15.56
2019-04-28T03:57:05.706Z,15.81
2019-04-28T03:58:06.038Z,15.88
2019-04-28T03:59:05.234Z,15.94
2019-04-28T04:00:05.645Z,15.94
2019-04-28T04:01:05.935Z,16.00
2019-04-28T04:02:05.961Z,15.75
2019-04-28T04:03:05.956Z,15.69
2019-04-28T04:04:05.401Z,15.69
2019-04-28T04:05:05.644Z,15.56
2019-04-28T04:06:05.629Z,15.56
2019-04-28T04:07:05.005Z,15.50
2019-04-28T04:08:05.534Z,15.44
2019-04-28T04:09:06.044Z,15.44
2019-04-28T04:10:05.510Z,15.38
2019-04-28T04:11:05.580Z,15.50
2019-04-28T04:12:06.050Z,15.69
2019-04-28T04:13:05.121Z,16.00
2019-04-28T04:14:05.490Z,16.06
2019-04-28T04:15:05.336Z,16.19
2019-04-28T04:16:05.203Z,16.31
2019-04-28T04:17:05.263Z,16.50
2019-04-28T04:18:05.904Z,16.38
2019-04-28T04:19:06.066Z,16.25
2019-04-28T04:20:05.406Z,16.06
2019-04-28T04:21:05.900Z,16.00
2019-04-28T04:22:05.560Z,16.06
2019-04-28T04:23:10.941Z,16.00
2019-04-28T04:24:05.427Z,15.94
2019-04-28T04:25:08.897Z,16.00
2019-04-28T04:26:05.996Z,16.06
2019-04-28T04:27:05.520Z,16.00
2019-04-28T04:28:10.470Z,15.94
2019-04-28T04:29:05.984Z,16.00
2019-04-28T04:30:06.066Z,15.94
2019-04-28T04:31:06.046Z,15.94
2019-04-28T04:32:14.611Z,15.75
2019-04-28T04:33:05.893Z,15.75
2019-04-28T04:34:06.243Z,15.50
2019-04-28T04:35:05.255Z,15.31
2019-04-28T04:36:05.132Z,15.19
2019-04-28T04:37:05.913Z,15.19
2019-04-28T04:38:06.061Z,15.06
2019-04-28T04:39:06.055Z,15.06
2019-04-28T04:40:05.347Z,15.00
2019-04-28T04:41:06.016Z,15.00
2019-04-28T04:42:05.198Z,15.00
2019-04-28T04:43:05.517Z,15.00
2019-04-28T04:44:06.069Z,15.00
2019-04-28T04:45:05.575Z,15.00
2019-04-28T04:46:05.180Z,15.00
2019-04-28T04:47:06.070Z,15.00
2019-04-28T04:48:05.419Z,15.12
2019-04-28T04:49:05.993Z,15.12
2019-04-28T04:50:05.187Z,15.31
2019-04-28T04:51:05.412Z,15.50
2019-04-28T04:52:05.090Z,15.44
2019-04-28T04:53:05.606Z,15.44
2019-04-28T04:54:06.762Z,15.38
2019-04-28T04:55:05.913Z,15.31
2019-04-28T04:56:05.206Z,15.25
2019-04-28T04:57:05.414Z,15.12
2019-04-28T04:58:05.662Z,15.06
2019-04-28T04:59:06.169Z,15.00
2019-04-28T05:00:05.272Z,15.00
2019-04-28T05:01:05.683Z,15.00
2019-04-28T05:02:05.749Z,15.12
2019-04-28T05:03:06.209Z,15.25
2019-04-28T05:04:05.550Z,15.50
2019-04-28T05:05:05.332Z,15.50
2019-04-28T05:06:05.506Z,15.44
2019-04-28T05:07:05.691Z,15.50
2019-04-28T05:08:06.068Z,15.44
2019-04-28T05:09:05.113Z,15.38
2019-04-28T05:10:05.663Z,15.38
2019-04-28T05:11:05.244Z,15.38
2019-04-28T05:12:06.019Z,15.31
2019-04-28T05:13:05.110Z,15.31
2019-04-28T05:14:07.421Z,15.50
2019-04-28T05:15:05.683Z,15.38
2019-04-28T05:16:05.356Z,15.44
2019-04-28T05:17:05.810Z,15.31
2019-04-28T05:18:05.430Z,15.31
2019-04-28T05:19:07.084Z,15.56
2019-04-28T05:20:05.271Z,15.88
2019-04-28T05:21:05.111Z,16.12
2019-04-28T05:22:05.342Z,16.25
2019-04-28T05:23:05.805Z,16.69
2019-04-28T05:24:09.108Z,16.75
2019-04-28T05:25:06.071Z,16.62
2019-04-28T05:26:07.902Z,16.88
2019-04-28T05:27:05.813Z,16.88
2019-04-28T05:28:06.055Z,17.19
2019-04-28T05:29:06.016Z,17.25
2019-04-28T05:30:05.612Z,17.38
2019-04-28T05:31:05.525Z,17.31
2019-04-28T05:32:05.668Z,17.25
2019-04-28T05:33:06.063Z,17.12
2019-04-28T05:34:08.037Z,17.00
2019-04-28T05:35:05.585Z,16.69
2019-04-28T05:36:06.138Z,16.50
2019-04-28T05:37:05.353Z,16.38
2019-04-28T05:38:05.679Z,16.38
2019-04-28T05:39:06.242Z,16.44
2019-04-28T05:40:05.424Z,16.56
2019-04-28T05:41:05.180Z,16.69
2019-04-28T05:42:05.580Z,16.75
2019-04-28T05:43:06.199Z,16.88
2019-04-28T05:44:06.063Z,16.81
2019-04-28T05:45:05.825Z,16.94
2019-04-28T05:46:05.370Z,17.00
2019-04-28T05:47:05.084Z,16.94
2019-04-28T05:48:05.590Z,16.81
2019-04-28T05:49:05.871Z,16.75
2019-04-28T05:50:05.396Z,16.75
2019-04-28T05:51:05.204Z,16.75
2019-04-28T05:52:05.653Z,16.50
2019-04-28T05:53:05.591Z,16.38
2019-04-28T05:54:05.672Z,16.56
2019-04-28T05:55:06.788Z,16.62
2019-04-28T05:56:05.338Z,16.88
2019-04-28T05:57:05.542Z,16.88
2019-04-28T05:58:05.499Z,16.81
2019-04-28T05:59:05.271Z,16.88
2019-04-28T06:00:05.674Z,16.81
2019-04-28T06:01:05.975Z,16.75
2019-04-28T06:02:05.819Z,16.56
2019-04-28T06:03:06.210Z,16.88
2019-04-28T06:04:05.680Z,16.75
2019-04-28T06:05:05.973Z,16.75
2019-04-28T06:06:05.692Z,16.56
2019-04-28T06:07:06.225Z,16.75
2019-04-28T06:08:05.474Z,16.75
2019-04-28T06:09:06.209Z,17.00
2019-04-28T06:10:05.094Z,16.88
2019-04-28T06:11:05.243Z,16.81
2019-04-28T06:12:05.801Z,16.75
2019-04-28T06:13:06.053Z,16.81
2019-04-28T06:14:05.408Z,16.75
2019-04-28T06:15:05.751Z,16.69
2019-04-28T06:16:05.822Z,16.62
2019-04-28T06:17:05.361Z,16.56
2019-04-28T06:18:05.517Z,16.50
2019-04-28T06:19:05.770Z,16.38
2019-04-28T06:20:06.127Z,16.88
2019-04-28T06:21:06.042Z,16.88
2019-04-28T06:22:05.753Z,16.75
2019-04-28T06:23:05.808Z,16.62
2019-04-28T06:24:05.974Z,16.56
2019-04-28T06:25:05.496Z,16.50
2019-04-28T06:26:06.062Z,16.44
2019-04-28T06:27:06.044Z,16.75
2019-04-28T06:28:05.330Z,16.81
2019-04-28T06:29:05.738Z,16.69
2019-04-28T06:30:06.075Z,17.00
2019-04-28T06:31:05.671Z,17.12
2019-04-28T06:32:05.264Z,17.06
2019-04-28T06:33:07.813Z,17.12
2019-04-28T06:34:05.890Z,17.19
2019-04-28T06:35:05.840Z,17.25
2019-04-28T06:36:06.985Z,17.06
2019-04-28T06:37:05.432Z,16.88
2019-04-28T06:38:05.580Z,16.88
2019-04-28T06:39:05.993Z,17.06
2019-04-28T06:40:06.412Z,16.94
2019-04-28T06:41:06.138Z,16.81
2019-04-28T06:42:05.823Z,16.88
2019-04-28T06:43:05.911Z,16.69
2019-04-28T06:44:05.497Z,16.56
2019-04-28T06:45:05.661Z,16.75
2019-04-28T06:46:05.908Z,16.69
2019-04-28T06:47:05.266Z,16.69
2019-04-28T06:48:05.740Z,16.81
2019-04-28T06:49:06.079Z,16.94
2019-04-28T06:50:05.668Z,16.81
2019-04-28T06:51:05.911Z,16.62
2019-04-28T06:52:05.081Z,16.75
2019-04-28T06:53:05.889Z,16.75
2019-04-28T06:54:05.431Z,16.81
2019-04-28T06:55:05.494Z,16.69
2019-04-28T06:56:05.731Z,16.69
2019-04-28T06:57:05.713Z,16.75
2019-04-28T06:58:05.767Z,16.75
2019-04-28T06:59:05.278Z,16.75
2019-04-28T07:00:05.259Z,16.56
2019-04-28T07:01:05.495Z,16.50
2019-04-28T07:02:05.882Z,16.38
2019-04-28T07:03:05.906Z,16.31
2019-04-28T07:04:05.988Z,16.19
2019-04-28T07:05:06.136Z,16.31
2019-04-28T07:06:05.742Z,16.25
2019-04-28T07:07:05.360Z,16.25
2019-04-28T07:08:05.594Z,16.25
2019-04-28T07:09:05.821Z,16.12
2019-04-28T07:10:06.096Z,16.19
2019-04-28T07:11:06.049Z,16.50
2019-04-28T07:12:06.201Z,16.50
2019-04-28T07:13:05.663Z,16.56
2019-04-28T07:14:05.426Z,16.62
2019-04-28T07:15:05.173Z,16.62
2019-04-28T07:16:05.463Z,16.75
2019-04-28T07:17:05.398Z,16.69
2019-04-28T07:18:06.874Z,16.56
2019-04-28T07:19:05.250Z,16.50
2019-04-28T07:20:06.013Z,16.75
2019-04-28T07:21:05.118Z,16.69
2019-04-28T07:22:05.846Z,16.69
2019-04-28T07:23:05.505Z,16.62
2019-04-28T07:24:06.963Z,16.62
2019-04-28T07:25:06.050Z,16.56
2019-04-28T07:26:05.927Z,16.56
2019-04-28T07:27:05.977Z,16.88
2019-04-28T07:28:05.409Z,16.75
2019-04-28T07:29:05.423Z,16.56
2019-04-28T07:30:05.904Z,16.94
2019-04-28T07:31:05.476Z,17.12
2019-04-28T07:32:05.341Z,17.25
2019-04-28T07:33:05.739Z,17.25
2019-04-28T07:34:05.889Z,17.50
2019-04-28T07:35:05.183Z,17.25
2019-04-28T07:36:05.997Z,17.25
2019-04-28T07:37:05.452Z,17.06
2019-04-28T07:38:06.058Z,16.94
2019-04-28T07:39:05.907Z,16.69
2019-04-28T07:40:05.663Z,16.44
2019-04-28T07:41:06.067Z,16.50
2019-04-28T07:42:05.429Z,16.56
2019-04-28T07:43:05.427Z,16.62
2019-04-28T07:44:05.981Z,16.94
2019-04-28T07:45:05.400Z,17.06
2019-04-28T07:46:05.275Z,17.56
2019-04-28T07:47:05.354Z,17.69
2019-04-28T07:48:05.733Z,17.69
2019-04-28T07:49:05.727Z,17.69
2019-04-28T07:50:05.736Z,17.50
2019-04-28T07:51:05.102Z,17.25
2019-04-28T07:52:05.492Z,17.06
2019-04-28T07:53:05.323Z,17.00
2019-04-28T07:54:05.667Z,16.88
2019-04-28T07:55:05.266Z,16.75
2019-04-28T07:56:05.677Z,16.69
2019-04-28T07:57:05.892Z,16.75
2019-04-28T07:58:05.097Z,16.69
2019-04-28T07:59:05.660Z,16.75
2019-04-28T08:00:05.266Z,16.81
2019-04-28T08:01:05.592Z,16.75
2019-04-28T08:02:05.417Z,16.56
2019-04-28T08:03:05.571Z,16.56
2019-04-28T08:04:05.178Z,16.56
2019-04-28T08:05:05.642Z,16.50
2019-04-28T08:06:05.243Z,16.50
2019-04-28T08:07:05.970Z,16.56
2019-04-28T08:08:05.188Z,16.62
2019-04-28T08:09:05.342Z,16.62
2019-04-28T08:10:05.746Z,16.62
2019-04-28T08:11:05.411Z,16.81
2019-04-28T08:12:05.744Z,16.88
2019-04-28T08:13:05.900Z,17.12
2019-04-28T08:14:06.230Z,17.06
2019-04-28T08:15:05.116Z,16.94
2019-04-28T08:16:05.574Z,16.88
2019-04-28T08:17:05.480Z,16.75
2019-04-28T08:18:06.961Z,16.69
2019-04-28T08:19:05.516Z,16.62
2019-04-28T08:20:05.808Z,16.56
2019-04-28T08:21:05.515Z,16.69
2019-04-28T08:22:05.652Z,16.69
2019-04-28T08:23:05.328Z,16.75
2019-04-28T08:24:05.656Z,16.69
2019-04-28T08:25:05.977Z,16.69
2019-04-28T08:26:05.575Z,16.62
2019-04-28T08:27:05.428Z,16.69
2019-04-28T08:28:05.581Z,16.69
2019-04-28T08:29:05.818Z,16.62
2019-04-28T08:30:05.592Z,16.62
2019-04-28T08:31:05.749Z,16.88
2019-04-28T08:32:05.347Z,16.69
2019-04-28T08:33:05.994Z,16.81
2019-04-28T08:34:05.428Z,16.88
2019-04-28T08:35:05.410Z,16.94
2019-04-28T08:36:05.575Z,16.94
2019-04-28T08:37:05.726Z,16.94
2019-04-28T08:38:06.055Z,17.12
2019-04-28T08:39:05.727Z,17.19
2019-04-28T08:40:05.955Z,17.19
2019-04-28T08:41:05.093Z,17.38
2019-04-28T08:42:05.980Z,17.31
2019-04-28T08:43:05.369Z,17.31
2019-04-28T08:44:05.964Z,17.25
2019-04-28T08:45:05.800Z,17.25
2019-04-28T08:46:05.423Z,17.19
2019-04-28T08:47:05.500Z,17.25
2019-04-28T08:48:05.931Z,17.19
2019-04-28T08:49:05.259Z,17.12
2019-04-28T08:50:05.661Z,17.12
2019-04-28T08:51:05.611Z,17.12
2019-04-28T08:52:05.964Z,17.06
2019-04-28T08:53:05.411Z,17.00
2019-04-28T08:54:05.989Z,16.94
2019-04-28T08:55:05.974Z,16.88
2019-04-28T08:56:05.421Z,16.88
2019-04-28T08:57:05.838Z,16.81
2019-04-28T08:58:06.147Z,16.75
2019-04-28T08:59:05.432Z,16.81
2019-04-28T09:00:05.750Z,16.81
2019-04-28T09:01:05.753Z,16.81
2019-04-28T09:02:06.032Z,16.81
2019-04-28T09:03:05.195Z,16.75
2019-04-28T09:04:15.035Z,16.81
2019-04-28T09:05:05.344Z,16.81
2019-04-28T09:06:05.881Z,16.88
2019-04-28T09:07:05.084Z,16.94
2019-04-28T09:08:05.659Z,17.06
2019-04-28T09:09:05.330Z,17.06
2019-04-28T09:10:05.561Z,17.06
2019-04-28T09:11:05.262Z,17.06
2019-04-28T09:12:06.002Z,17.19
2019-04-28T09:13:05.353Z,17.31
2019-04-28T09:14:05.473Z,17.25
2019-04-28T09:15:05.743Z,17.38
2019-04-28T09:16:05.307Z,17.44
2019-04-28T09:17:05.491Z,17.50
2019-04-28T09:18:05.911Z,17.56
2019-04-28T09:19:05.451Z,17.50
2019-04-28T09:20:05.663Z,17.44
2019-04-28T09:21:05.578Z,17.31
2019-04-28T09:22:05.791Z,17.19
2019-04-28T09:23:05.985Z,17.12
2019-04-28T09:24:05.537Z,17.19
2019-04-28T09:25:05.496Z,17.12
2019-04-28T09:26:05.741Z,17.06
2019-04-28T09:27:05.989Z,17.06
2019-04-28T09:28:05.499Z,17.06
2019-04-28T09:29:05.736Z,17.00
2019-04-28T09:30:05.185Z,16.94
2019-04-28T09:31:07.855Z,17.00
2019-04-28T09:32:06.165Z,16.94
2019-04-28T09:33:05.681Z,16.94
2019-04-28T09:34:05.776Z,16.94
2019-04-28T09:35:05.685Z,17.06
2019-04-28T09:36:05.805Z,17.19
2019-04-28T09:37:05.267Z,17.31
2019-04-28T09:38:05.497Z,17.31
2019-04-28T09:39:05.848Z,17.25
2019-04-28T09:40:05.257Z,17.25
2019-04-28T09:41:05.590Z,17.38
2019-04-28T09:42:05.499Z,17.44
2019-04-28T09:43:05.741Z,17.44
2019-04-28T09:44:05.505Z,17.44
2019-04-28T09:45:05.986Z,17.44
2019-04-28T09:46:05.947Z,17.56
2019-04-28T09:47:05.587Z,17.50
2019-04-28T09:48:05.577Z,17.44
2019-04-28T09:49:05.234Z,17.50
2019-04-28T09:50:05.722Z,17.50
2019-04-28T09:51:05.806Z,17.44
2019-04-28T09:52:06.072Z,17.50
2019-04-28T09:53:06.155Z,17.62
2019-04-28T09:54:05.265Z,17.69
2019-04-28T09:55:05.751Z,17.69
2019-04-28T09:56:06.093Z,17.75
2019-04-28T09:57:05.220Z,17.75
2019-04-28T09:58:05.981Z,17.69
2019-04-28T09:59:05.964Z,17.75
2019-04-28T10:00:05.724Z,17.88
2019-04-28T10:01:06.229Z,17.88
2019-04-28T10:02:05.215Z,17.88
2019-04-28T10:03:05.338Z,17.94
2019-04-28T10:04:06.221Z,17.94
2019-04-28T10:05:05.515Z,18.00
2019-04-28T10:06:05.846Z,17.94
2019-04-28T10:07:05.806Z,17.88
2019-04-28T10:08:05.161Z,18.00
2019-04-28T10:09:05.355Z,18.12
2019-04-28T10:10:05.103Z,18.25
2019-04-28T10:11:05.366Z,18.06
2019-04-28T10:12:05.436Z,18.00
2019-04-28T10:13:05.989Z,18.00
2019-04-28T10:14:05.168Z,18.00
2019-04-28T10:15:05.324Z,18.06
2019-04-28T10:16:05.545Z,18.00
2019-04-28T10:17:05.608Z,18.06
2019-04-28T10:18:05.369Z,18.00
2019-04-28T10:19:06.134Z,18.06
2019-04-28T10:20:05.215Z,18.25
2019-04-28T10:21:06.025Z,18.31
2019-04-28T10:22:05.556Z,18.38
2019-04-28T10:23:05.913Z,18.38
2019-04-28T10:24:05.977Z,18.31
2019-04-28T10:25:05.426Z,18.25
2019-04-28T10:26:05.487Z,18.25
2019-04-28T10:27:05.984Z,18.25
2019-04-28T10:28:05.608Z,18.38
2019-04-28T10:29:06.131Z,18.38
2019-04-28T10:30:05.259Z,18.38
2019-04-28T10:31:06.389Z,18.38
2019-04-28T10:32:05.690Z,18.31
2019-04-28T10:33:06.080Z,18.31
2019-04-28T10:34:05.819Z,18.38
2019-04-28T10:35:05.258Z,18.50
2019-04-28T10:36:05.673Z,18.50
2019-04-28T10:37:06.057Z,18.56
2019-04-28T10:38:05.176Z,18.75
2019-04-28T10:39:05.494Z,18.81
2019-04-28T10:40:05.713Z,18.88
2019-04-28T10:41:05.734Z,18.94
2019-04-28T10:42:06.323Z,18.94
2019-04-28T10:43:05.331Z,18.94
2019-04-28T10:44:08.448Z,18.88
2019-04-28T10:45:05.260Z,18.94
2019-04-28T10:46:06.155Z,19.00
2019-04-28T10:47:05.272Z,19.00
2019-04-28T10:48:06.611Z,18.94
2019-04-28T10:49:05.355Z,18.88
2019-04-28T10:50:05.720Z,18.81
2019-04-28T10:51:06.637Z,19.00
2019-04-28T10:52:06.045Z,19.00
2019-04-28T10:53:05.508Z,19.12
2019-04-28T10:54:05.330Z,19.19
2019-04-28T10:55:05.755Z,19.25
2019-04-28T10:56:06.047Z,19.25
2019-04-28T10:57:06.058Z,19.19
2019-04-28T10:58:05.093Z,19.25
2019-04-28T10:59:05.898Z,19.56
2019-04-28T11:00:05.573Z,19.62
2019-04-28T11:01:05.275Z,19.62
2019-04-28T11:02:05.649Z,19.69
2019-04-28T11:03:05.173Z,19.81
2019-04-28T11:04:05.566Z,20.06
2019-04-28T11:05:08.326Z,20.12
2019-04-28T11:06:05.753Z,20.12
2019-04-28T11:07:05.274Z,20.38
2019-04-28T11:08:05.821Z,20.38
2019-04-28T11:09:05.432Z,20.25
2019-04-28T11:10:05.750Z,20.31
2019-04-28T11:11:05.757Z,20.38
2019-04-28T11:12:05.735Z,20.31
2019-04-28T11:13:05.521Z,20.25
2019-04-28T11:14:05.510Z,20.31
2019-04-28T11:15:06.750Z,20.19
2019-04-28T11:16:05.177Z,20.19
2019-04-28T11:17:05.651Z,20.25
2019-04-28T11:18:05.975Z,20.38
2019-04-28T11:19:07.460Z,20.31
2019-04-28T11:20:05.947Z,20.31
2019-04-28T11:21:06.047Z,20.31
2019-04-28T11:22:05.918Z,20.62
2019-04-28T11:23:05.899Z,20.75
2019-04-28T11:24:05.341Z,21.00
2019-04-28T11:25:05.745Z,21.00
2019-04-28T11:26:05.989Z,21.06
2019-04-28T11:27:05.410Z,21.12
2019-04-28T11:28:05.682Z,21.06
2019-04-28T11:29:05.975Z,21.00
2019-04-28T11:30:05.339Z,21.56
2019-04-28T11:31:05.505Z,21.81
2019-04-28T11:32:05.758Z,21.69
2019-04-28T11:33:06.047Z,21.56
2019-04-28T11:34:05.584Z,21.44
2019-04-28T11:35:07.508Z,21.56
2019-04-28T11:36:05.417Z,21.81
2019-04-28T11:37:06.141Z,21.69
2019-04-28T11:38:05.184Z,21.62
2019-04-28T11:39:05.571Z,21.44
2019-04-28T11:40:05.736Z,21.44
2019-04-28T11:41:05.228Z,21.44
2019-04-28T11:42:05.415Z,21.62
2019-04-28T11:43:05.983Z,21.81
2019-04-28T11:44:05.899Z,21.88
2019-04-28T11:45:06.048Z,22.00
2019-04-28T11:46:05.986Z,21.88
2019-04-28T11:47:05.426Z,21.75
2019-04-28T11:48:05.899Z,21.69
2019-04-28T11:49:05.191Z,21.56
2019-04-28T11:50:05.747Z,21.56
2019-04-28T11:51:05.504Z,21.62
2019-04-28T11:52:05.975Z,21.50
2019-04-28T11:53:05.821Z,21.38
2019-04-28T11:54:05.488Z,21.19
2019-04-28T11:55:05.858Z,21.00
2019-04-28T11:56:05.681Z,20.81
2019-04-28T11:57:05.587Z,20.88
2019-04-28T11:58:05.893Z,20.88
2019-04-28T11:59:05.418Z,21.00
2019-04-28T12:00:05.726Z,20.94
2019-04-28T12:01:05.982Z,20.94
2019-04-28T12:02:05.420Z,20.81
2019-04-28T12:03:05.575Z,20.88
2019-04-28T12:04:06.131Z,20.94
2019-04-28T12:05:05.657Z,20.62
2019-04-28T12:06:06.899Z,20.56
2019-04-28T12:07:06.076Z,20.50
2019-04-28T12:08:05.183Z,20.31
2019-04-28T12:09:05.811Z,20.19
2019-04-28T12:10:06.347Z,20.12
2019-04-28T12:11:05.504Z,20.06
2019-04-28T12:12:05.258Z,19.88
2019-04-28T12:13:05.910Z,19.81
2019-04-28T12:14:06.056Z,20.12
2019-04-28T12:15:05.249Z,20.19
2019-04-28T12:16:05.327Z,20.25
2019-04-28T12:17:05.498Z,20.19
2019-04-28T12:18:06.523Z,20.12
2019-04-28T12:19:05.745Z,20.25
2019-04-28T12:20:05.248Z,20.25
2019-04-28T12:21:05.094Z,20.44
2019-04-28T12:22:06.065Z,20.31
2019-04-28T12:23:05.262Z,20.25
2019-04-28T12:24:05.504Z,20.19
2019-04-28T12:25:05.581Z,20.31
2019-04-28T12:26:05.991Z,20.25
2019-04-28T12:27:05.325Z,20.25
2019-04-28T12:28:05.582Z,20.56
2019-04-28T12:29:05.583Z,20.44
2019-04-28T12:30:06.122Z,20.25
2019-04-28T12:31:05.101Z,20.12
2019-04-28T12:32:05.346Z,20.06
2019-04-28T12:33:05.895Z,19.94
2019-04-28T12:34:05.736Z,19.75
2019-04-28T12:35:05.106Z,19.75
2019-04-28T12:36:05.786Z,19.75
2019-04-28T12:37:06.047Z,19.56
2019-04-28T12:38:07.043Z,19.19
2019-04-28T12:39:05.975Z,19.00
2019-04-28T12:40:05.168Z,18.88
2019-04-28T12:41:05.168Z,18.88
2019-04-28T12:42:05.984Z,18.88
2019-04-28T12:43:05.738Z,18.81
2019-04-28T12:44:05.242Z,18.44
2019-04-28T12:45:05.411Z,18.44
2019-04-28T12:46:07.180Z,18.31
2019-04-28T12:47:05.987Z,18.38
2019-04-28T12:48:06.144Z,18.50
2019-04-28T12:49:05.581Z,18.56
2019-04-28T12:50:05.723Z,18.62
2019-04-28T12:51:05.885Z,18.31
2019-04-28T12:52:05.730Z,18.12